sensor_id;sensor_type;location;lat;lon;timestamp;P1;durP1;ratioP1;P2;durP2;ratioP2
24277;SDS011;12394;42.692;23.314;2023-03-23T00:01:18;43.17;;;27.87;;
24277;SDS011;12394;42.692;23.314;2023-03-23T00:03:45;43.23;;;27.27;;
24277;SDS011;12394;42.692;23.314;2023-03-23T00:06:13;47.10;;;27.27;;
24277;SDS011;12394;42.692;23.314;2023-03-23T00:08:43;42.53;;;27.97;;
24277;SDS011;12394;42.692;23.314;2023-03-23T00:11:19;39.73;;;27.37;;
24277;SDS011;12394;42.692;23.314;2023-03-23T00:13:47;44.53;;;27.17;;
24277;SDS011;12394;42.692;23.314;2023-03-23T00:16:18;47.23;;;28.43;;
24277;SDS011;12394;42.692;23.314;2023-03-23T00:18:49;46.07;;;29.97;;
24277;SDS011;12394;42.692;23.314;2023-03-23T00:21:19;42.63;;;29.27;;
24277;SDS011;12394;42.692;23.314;2023-03-23T00:23:45;46.80;;;31.77;;
24277;SDS011;12394;42.692;23.314;2023-03-23T00:26:11;52.17;;;34.23;;
24277;SDS011;12394;42.692;23.314;2023-03-23T00:28:37;51.93;;;34.80;;
24277;SDS011;12394;42.692;23.314;2023-03-23T00:31:06;52.00;;;33.70;;
24277;SDS011;12394;42.692;23.314;2023-03-23T00:33:35;46.77;;;32.63;;
24277;SDS011;12394;42.692;23.314;2023-03-23T00:36:06;54.17;;;35.07;;
24277;SDS011;12394;42.692;23.314;2023-03-23T00:38:33;51.20;;;34.07;;
24277;SDS011;12394;42.692;23.314;2023-03-23T00:41:00;50.97;;;34.57;;
24277;SDS011;12394;42.692;23.314;2023-03-23T00:43:29;48.80;;;34.50;;
24277;SDS011;12394;42.692;23.314;2023-03-23T00:45:56;50.60;;;32.40;;
24277;SDS011;12394;42.692;23.314;2023-03-23T00:48:26;51.90;;;33.23;;
24277;SDS011;12394;42.692;23.314;2023-03-23T00:50:53;49.80;;;34.20;;
24277;SDS011;12394;42.692;23.314;2023-03-23T00:53:21;52.90;;;34.97;;
24277;SDS011;12394;42.692;23.314;2023-03-23T00:55:48;53.20;;;35.90;;
24277;SDS011;12394;42.692;23.314;2023-03-23T00:58:14;55.00;;;35.80;;
24277;SDS011;12394;42.692;23.314;2023-03-23T01:00:40;55.47;;;36.73;;
24277;SDS011;12394;42.692;23.314;2023-03-23T01:03:07;54.43;;;36.13;;
24277;SDS011;12394;42.692;23.314;2023-03-23T01:05:37;59.77;;;36.73;;
24277;SDS011;12394;42.692;23.314;2023-03-23T01:08:03;55.13;;;37.53;;
24277;SDS011;12394;42.692;23.314;2023-03-23T01:10:29;53.57;;;36.03;;
24277;SDS011;12394;42.692;23.314;2023-03-23T01:12:58;53.87;;;35.97;;
24277;SDS011;12394;42.692;23.314;2023-03-23T01:15:26;54.60;;;35.97;;
24277;SDS011;12394;42.692;23.314;2023-03-23T01:17:52;57.50;;;37.83;;
24277;SDS011;12394;42.692;23.314;2023-03-23T01:20:17;53.50;;;37.30;;
24277;SDS011;12394;42.692;23.314;2023-03-23T01:22:43;59.10;;;37.30;;
24277;SDS011;12394;42.692;23.314;2023-03-23T01:25:10;61.60;;;40.60;;
24277;SDS011;12394;42.692;23.314;2023-03-23T01:27:37;60.10;;;38.10;;
24277;SDS011;12394;42.692;23.314;2023-03-23T01:30:03;53.63;;;35.73;;
24277;SDS011;12394;42.692;23.314;2023-03-23T01:32:30;56.70;;;36.27;;
24277;SDS011;12394;42.692;23.314;2023-03-23T01:34:56;61.57;;;38.00;;
24277;SDS011;12394;42.692;23.314;2023-03-23T01:37:22;59.97;;;35.87;;
24277;SDS011;12394;42.692;23.314;2023-03-23T01:39:54;62.13;;;34.03;;
24277;SDS011;12394;42.692;23.314;2023-03-23T01:42:24;56.77;;;33.67;;
24277;SDS011;12394;42.692;23.314;2023-03-23T01:47:20;48.43;;;30.47;;
24277;SDS011;12394;42.692;23.314;2023-03-23T01:49:48;47.13;;;29.37;;
24277;SDS011;12394;42.692;23.314;2023-03-23T01:52:16;44.30;;;28.93;;
24277;SDS011;12394;42.692;23.314;2023-03-23T01:54:48;46.10;;;28.87;;
24277;SDS011;12394;42.692;23.314;2023-03-23T01:57:17;48.53;;;30.53;;
24277;SDS011;12394;42.692;23.314;2023-03-23T01:59:45;47.67;;;30.43;;
24277;SDS011;12394;42.692;23.314;2023-03-23T02:02:14;49.93;;;32.03;;
24277;SDS011;12394;42.692;23.314;2023-03-23T02:04:41;50.27;;;31.97;;
24277;SDS011;12394;42.692;23.314;2023-03-23T02:07:06;49.90;;;31.33;;
24277;SDS011;12394;42.692;23.314;2023-03-23T02:09:33;51.07;;;31.40;;
24277;SDS011;12394;42.692;23.314;2023-03-23T02:11:58;48.03;;;31.50;;
24277;SDS011;12394;42.692;23.314;2023-03-23T02:14:24;49.73;;;32.97;;
24277;SDS011;12394;42.692;23.314;2023-03-23T02:28:08;50.53;;;32.07;;
24277;SDS011;12394;42.692;23.314;2023-03-23T02:30:54;49.13;;;31.33;;
24277;SDS011;12394;42.692;23.314;2023-03-23T02:36:19;50.17;;;33.27;;
24277;SDS011;12394;42.692;23.314;2023-03-23T02:38:55;47.20;;;30.20;;
24277;SDS011;12394;42.692;23.314;2023-03-23T02:41:41;44.90;;;28.03;;
24277;SDS011;12394;42.692;23.314;2023-03-23T02:44:19;35.50;;;24.50;;
24277;SDS011;12394;42.692;23.314;2023-03-23T02:46:46;34.20;;;22.87;;
24277;SDS011;12394;42.692;23.314;2023-03-23T02:49:14;30.33;;;22.10;;
24277;SDS011;12394;42.692;23.314;2023-03-23T02:51:41;34.40;;;23.40;;
24277;SDS011;12394;42.692;23.314;2023-03-23T02:54:10;37.17;;;23.70;;
24277;SDS011;12394;42.692;23.314;2023-03-23T02:56:38;46.47;;;28.40;;
24277;SDS011;12394;42.692;23.314;2023-03-23T02:59:05;43.43;;;29.60;;
24277;SDS011;12394;42.692;23.314;2023-03-23T03:04:01;47.83;;;30.63;;
24277;SDS011;12394;42.692;23.314;2023-03-23T03:08:59;39.57;;;27.77;;
24277;SDS011;12394;42.692;23.314;2023-03-23T03:11:31;38.77;;;25.33;;
24277;SDS011;12394;42.692;23.314;2023-03-23T03:21:37;34.30;;;22.90;;
24277;SDS011;12394;42.692;23.314;2023-03-23T03:24:06;30.77;;;20.50;;
24277;SDS011;12394;42.692;23.314;2023-03-23T03:26:36;34.70;;;21.40;;
24277;SDS011;12394;42.692;23.314;2023-03-23T03:29:04;24.20;;;17.10;;
24277;SDS011;12394;42.692;23.314;2023-03-23T03:31:32;25.07;;;15.90;;
24277;SDS011;12394;42.692;23.314;2023-03-23T03:34:00;20.60;;;16.57;;
24277;SDS011;12394;42.692;23.314;2023-03-23T03:36:30;22.23;;;15.00;;
24277;SDS011;12394;42.692;23.314;2023-03-23T03:38:59;20.00;;;13.50;;
24277;SDS011;12394;42.692;23.314;2023-03-23T03:41:32;20.07;;;14.70;;
24277;SDS011;12394;42.692;23.314;2023-03-23T03:43:58;20.90;;;13.67;;
24277;SDS011;12394;42.692;23.314;2023-03-23T03:46:24;26.70;;;14.23;;
24277;SDS011;12394;42.692;23.314;2023-03-23T03:48:52;18.47;;;13.80;;
24277;SDS011;12394;42.692;23.314;2023-03-23T03:51:18;21.17;;;13.43;;
24277;SDS011;12394;42.692;23.314;2023-03-23T03:53:43;22.83;;;13.70;;
24277;SDS011;12394;42.692;23.314;2023-03-23T03:56:08;22.63;;;15.40;;
24277;SDS011;12394;42.692;23.314;2023-03-23T03:58:34;22.03;;;15.50;;
24277;SDS011;12394;42.692;23.314;2023-03-23T04:01:01;24.67;;;14.80;;
24277;SDS011;12394;42.692;23.314;2023-03-23T04:03:27;33.37;;;18.03;;
24277;SDS011;12394;42.692;23.314;2023-03-23T04:05:53;18.77;;;14.17;;
24277;SDS011;12394;42.692;23.314;2023-03-23T04:08:20;23.10;;;14.33;;
24277;SDS011;12394;42.692;23.314;2023-03-23T04:10:47;23.03;;;14.33;;
24277;SDS011;12394;42.692;23.314;2023-03-23T04:13:12;22.13;;;14.57;;
24277;SDS011;12394;42.692;23.314;2023-03-23T04:15:38;23.37;;;15.03;;
24277;SDS011;12394;42.692;23.314;2023-03-23T04:18:04;20.67;;;14.13;;
24277;SDS011;12394;42.692;23.314;2023-03-23T04:20:30;21.63;;;14.73;;
24277;SDS011;12394;42.692;23.314;2023-03-23T04:22:56;25.13;;;14.33;;
24277;SDS011;12394;42.692;23.314;2023-03-23T04:25:21;27.30;;;14.80;;
24277;SDS011;12394;42.692;23.314;2023-03-23T04:27:47;19.10;;;14.50;;
24277;SDS011;12394;42.692;23.314;2023-03-23T04:30:18;20.30;;;14.20;;
24277;SDS011;12394;42.692;23.314;2023-03-23T04:32:47;19.93;;;14.90;;
24277;SDS011;12394;42.692;23.314;2023-03-23T04:35:20;18.93;;;14.27;;
24277;SDS011;12394;42.692;23.314;2023-03-23T04:37:47;25.37;;;14.97;;
24277;SDS011;12394;42.692;23.314;2023-03-23T04:40:13;22.50;;;14.37;;
24277;SDS011;12394;42.692;23.314;2023-03-23T04:42:40;21.13;;;13.93;;
24277;SDS011;12394;42.692;23.314;2023-03-23T04:45:11;27.90;;;14.03;;
24277;SDS011;12394;42.692;23.314;2023-03-23T04:47:39;23.20;;;14.53;;
24277;SDS011;12394;42.692;23.314;2023-03-23T04:50:15;27.30;;;15.77;;
24277;SDS011;12394;42.692;23.314;2023-03-23T04:52:40;23.70;;;14.43;;
24277;SDS011;12394;42.692;23.314;2023-03-23T04:55:10;20.00;;;14.87;;
24277;SDS011;12394;42.692;23.314;2023-03-23T04:57:37;23.93;;;16.13;;
24277;SDS011;12394;42.692;23.314;2023-03-23T05:00:03;20.93;;;15.03;;
24277;SDS011;12394;42.692;23.314;2023-03-23T05:02:34;26.43;;;15.23;;
24277;SDS011;12394;42.692;23.314;2023-03-23T05:05:00;30.47;;;16.13;;
24277;SDS011;12394;42.692;23.314;2023-03-23T05:07:26;31.13;;;16.30;;
24277;SDS011;12394;42.692;23.314;2023-03-23T05:09:51;22.90;;;14.73;;
24277;SDS011;12394;42.692;23.314;2023-03-23T05:12:16;23.80;;;15.67;;
24277;SDS011;12394;42.692;23.314;2023-03-23T05:14:42;21.37;;;15.07;;
24277;SDS011;12394;42.692;23.314;2023-03-23T05:17:08;30.93;;;18.00;;
24277;SDS011;12394;42.692;23.314;2023-03-23T05:19:34;34.43;;;19.50;;
24277;SDS011;12394;42.692;23.314;2023-03-23T05:22:01;32.40;;;22.40;;
24277;SDS011;12394;42.692;23.314;2023-03-23T05:24:31;34.97;;;22.60;;
24277;SDS011;12394;42.692;23.314;2023-03-23T05:26:58;33.43;;;21.83;;
24277;SDS011;12394;42.692;23.314;2023-03-23T05:29:24;33.43;;;20.73;;
24277;SDS011;12394;42.692;23.314;2023-03-23T05:31:51;26.93;;;19.83;;
24277;SDS011;12394;42.692;23.314;2023-03-23T05:34:18;35.30;;;21.30;;
24277;SDS011;12394;42.692;23.314;2023-03-23T05:36:44;28.90;;;19.20;;
24277;SDS011;12394;42.692;23.314;2023-03-23T05:39:11;32.17;;;20.77;;
24277;SDS011;12394;42.692;23.314;2023-03-23T05:41:36;30.43;;;21.00;;
24277;SDS011;12394;42.692;23.314;2023-03-23T05:44:21;38.27;;;19.50;;
24277;SDS011;12394;42.692;23.314;2023-03-23T05:46:46;32.63;;;20.67;;
24277;SDS011;12394;42.692;23.314;2023-03-23T05:49:13;33.73;;;22.07;;
24277;SDS011;12394;42.692;23.314;2023-03-23T05:51:41;36.40;;;22.87;;
24277;SDS011;12394;42.692;23.314;2023-03-23T05:54:07;47.83;;;23.73;;
24277;SDS011;12394;42.692;23.314;2023-03-23T05:56:33;34.67;;;23.67;;
24277;SDS011;12394;42.692;23.314;2023-03-23T05:58:59;33.83;;;23.03;;
24277;SDS011;12394;42.692;23.314;2023-03-23T06:01:25;31.87;;;23.60;;
24277;SDS011;12394;42.692;23.314;2023-03-23T06:03:50;38.63;;;25.87;;
24277;SDS011;12394;42.692;23.314;2023-03-23T06:06:21;45.10;;;25.60;;
24277;SDS011;12394;42.692;23.314;2023-03-23T06:08:47;38.70;;;25.83;;
24277;SDS011;12394;42.692;23.314;2023-03-23T06:11:15;43.53;;;26.03;;
24277;SDS011;12394;42.692;23.314;2023-03-23T06:13:40;43.63;;;26.13;;
24277;SDS011;12394;42.692;23.314;2023-03-23T06:16:06;42.53;;;25.77;;
24277;SDS011;12394;42.692;23.314;2023-03-23T06:18:33;42.77;;;27.17;;
24277;SDS011;12394;42.692;23.314;2023-03-23T06:21:02;44.70;;;25.57;;
24277;SDS011;12394;42.692;23.314;2023-03-23T06:23:28;39.57;;;25.37;;
24277;SDS011;12394;42.692;23.314;2023-03-23T06:25:55;40.87;;;26.17;;
24277;SDS011;12394;42.692;23.314;2023-03-23T06:28:24;39.33;;;26.90;;
24277;SDS011;12394;42.692;23.314;2023-03-23T06:30:49;43.93;;;28.37;;
24277;SDS011;12394;42.692;23.314;2023-03-23T06:33:14;59.03;;;31.50;;
24277;SDS011;12394;42.692;23.314;2023-03-23T06:35:40;42.87;;;29.07;;
24277;SDS011;12394;42.692;23.314;2023-03-23T06:38:05;45.57;;;28.10;;
24277;SDS011;12394;42.692;23.314;2023-03-23T06:40:31;41.47;;;27.20;;
24277;SDS011;12394;42.692;23.314;2023-03-23T06:42:57;39.57;;;26.63;;
24277;SDS011;12394;42.692;23.314;2023-03-23T06:45:24;44.73;;;25.93;;
24277;SDS011;12394;42.692;23.314;2023-03-23T06:47:50;34.57;;;24.30;;
24277;SDS011;12394;42.692;23.314;2023-03-23T06:50:15;36.47;;;24.47;;
24277;SDS011;12394;42.692;23.314;2023-03-23T06:52:44;40.20;;;27.00;;
24277;SDS011;12394;42.692;23.314;2023-03-23T06:55:11;34.37;;;24.20;;
24277;SDS011;12394;42.692;23.314;2023-03-23T06:57:38;34.17;;;24.40;;
24277;SDS011;12394;42.692;23.314;2023-03-23T07:00:04;36.13;;;26.20;;
24277;SDS011;12394;42.692;23.314;2023-03-23T07:02:32;35.80;;;25.53;;
24277;SDS011;12394;42.692;23.314;2023-03-23T07:04:58;38.57;;;26.67;;
24277;SDS011;12394;42.692;23.314;2023-03-23T07:07:23;34.73;;;25.43;;
24277;SDS011;12394;42.692;23.314;2023-03-23T07:09:49;31.30;;;24.60;;
24277;SDS011;12394;42.692;23.314;2023-03-23T07:12:15;37.70;;;25.37;;
24277;SDS011;12394;42.692;23.314;2023-03-23T07:14:40;36.13;;;24.40;;
24277;SDS011;12394;42.692;23.314;2023-03-23T07:17:06;38.47;;;23.77;;
24277;SDS011;12394;42.692;23.314;2023-03-23T07:19:32;35.27;;;23.83;;
24277;SDS011;12394;42.692;23.314;2023-03-23T07:21:58;38.27;;;23.80;;
24277;SDS011;12394;42.692;23.314;2023-03-23T07:24:23;44.67;;;24.53;;
24277;SDS011;12394;42.692;23.314;2023-03-23T07:26:49;41.30;;;24.30;;
24277;SDS011;12394;42.692;23.314;2023-03-23T07:29:14;34.60;;;23.30;;
24277;SDS011;12394;42.692;23.314;2023-03-23T07:31:39;30.93;;;22.10;;
24277;SDS011;12394;42.692;23.314;2023-03-23T07:34:05;30.80;;;21.33;;
24277;SDS011;12394;42.692;23.314;2023-03-23T07:36:31;33.03;;;23.20;;
24277;SDS011;12394;42.692;23.314;2023-03-23T07:38:57;40.57;;;23.70;;
24277;SDS011;12394;42.692;23.314;2023-03-23T07:41:23;34.63;;;24.07;;
24277;SDS011;12394;42.692;23.314;2023-03-23T07:43:49;32.90;;;21.50;;
24277;SDS011;12394;42.692;23.314;2023-03-23T07:46:14;30.60;;;22.00;;
24277;SDS011;12394;42.692;23.314;2023-03-23T07:48:39;42.27;;;23.27;;
24277;SDS011;12394;42.692;23.314;2023-03-23T07:51:06;28.90;;;22.60;;
24277;SDS011;12394;42.692;23.314;2023-03-23T07:53:32;43.50;;;22.57;;
24277;SDS011;12394;42.692;23.314;2023-03-23T07:55:58;35.77;;;24.27;;
24277;SDS011;12394;42.692;23.314;2023-03-23T07:58:23;34.60;;;22.93;;
24277;SDS011;12394;42.692;23.314;2023-03-23T08:00:49;36.70;;;22.63;;
24277;SDS011;12394;42.692;23.314;2023-03-23T08:03:15;32.23;;;21.23;;
24277;SDS011;12394;42.692;23.314;2023-03-23T08:05:41;21.97;;;18.50;;
24277;SDS011;12394;42.692;23.314;2023-03-23T08:08:07;21.33;;;18.07;;
24277;SDS011;12394;42.692;23.314;2023-03-23T08:10:35;29.37;;;20.27;;
24277;SDS011;12394;42.692;23.314;2023-03-23T08:13:01;37.13;;;20.57;;
24277;SDS011;12394;42.692;23.314;2023-03-23T08:15:27;27.87;;;20.30;;
24277;SDS011;12394;42.692;23.314;2023-03-23T08:17:53;22.73;;;18.40;;
24277;SDS011;12394;42.692;23.314;2023-03-23T08:20:19;20.50;;;16.03;;
24277;SDS011;12394;42.692;23.314;2023-03-23T08:22:54;19.83;;;15.50;;
24277;SDS011;12394;42.692;23.314;2023-03-23T08:25:21;22.13;;;15.17;;
24277;SDS011;12394;42.692;23.314;2023-03-23T08:27:49;20.40;;;15.67;;
24277;SDS011;12394;42.692;23.314;2023-03-23T08:30:15;21.30;;;15.77;;
24277;SDS011;12394;42.692;23.314;2023-03-23T08:32:44;18.10;;;16.20;;
24277;SDS011;12394;42.692;23.314;2023-03-23T08:35:11;23.13;;;17.43;;
24277;SDS011;12394;42.692;23.314;2023-03-23T08:37:37;21.07;;;17.53;;
24277;SDS011;12394;42.692;23.314;2023-03-23T08:40:04;22.47;;;14.93;;
24277;SDS011;12394;42.692;23.314;2023-03-23T08:42:34;15.63;;;13.17;;
24277;SDS011;12394;42.692;23.314;2023-03-23T08:45:01;12.70;;;11.30;;
24277;SDS011;12394;42.692;23.314;2023-03-23T08:47:28;14.73;;;12.27;;
24277;SDS011;12394;42.692;23.314;2023-03-23T08:49:53;14.90;;;13.17;;
24277;SDS011;12394;42.692;23.314;2023-03-23T08:52:19;19.27;;;14.23;;
24277;SDS011;12394;42.692;23.314;2023-03-23T08:54:45;14.37;;;11.13;;
24277;SDS011;12394;42.692;23.314;2023-03-23T08:57:12;13.50;;;10.63;;
24277;SDS011;12394;42.692;23.314;2023-03-23T08:59:39;13.07;;;9.53;;
24277;SDS011;12394;42.692;23.314;2023-03-23T09:02:06;8.37;;;7.37;;
24277;SDS011;12394;42.692;23.314;2023-03-23T09:04:37;8.33;;;7.43;;
24277;SDS011;12394;42.692;23.314;2023-03-23T09:07:07;11.37;;;8.77;;
24277;SDS011;12394;42.692;23.314;2023-03-23T09:09:37;9.97;;;8.97;;
24277;SDS011;12394;42.692;23.314;2023-03-23T09:12:09;9.80;;;8.83;;
24277;SDS011;12394;42.692;23.314;2023-03-23T09:14:36;10.73;;;8.40;;
24277;SDS011;12394;42.692;23.314;2023-03-23T09:17:02;11.40;;;9.20;;
24277;SDS011;12394;42.692;23.314;2023-03-23T09:19:29;11.77;;;9.40;;
24277;SDS011;12394;42.692;23.314;2023-03-23T09:21:55;12.63;;;9.50;;
24277;SDS011;12394;42.692;23.314;2023-03-23T09:24:21;10.80;;;9.43;;
24277;SDS011;12394;42.692;23.314;2023-03-23T09:26:47;12.60;;;9.07;;
24277;SDS011;12394;42.692;23.314;2023-03-23T09:29:12;16.43;;;12.97;;
24277;SDS011;12394;42.692;23.314;2023-03-23T09:31:38;11.00;;;9.23;;
24277;SDS011;12394;42.692;23.314;2023-03-23T09:34:06;12.70;;;11.27;;
24277;SDS011;12394;42.692;23.314;2023-03-23T09:36:34;9.80;;;8.80;;
24277;SDS011;12394;42.692;23.314;2023-03-23T09:39:00;8.07;;;7.27;;
24277;SDS011;12394;42.692;23.314;2023-03-23T09:49:35;11.37;;;8.17;;
24277;SDS011;12394;42.692;23.314;2023-03-23T09:52:08;10.43;;;9.00;;
24277;SDS011;12394;42.692;23.314;2023-03-23T09:54:36;10.23;;;9.17;;
24277;SDS011;12394;42.692;23.314;2023-03-23T09:57:10;13.60;;;9.00;;
24277;SDS011;12394;42.692;23.314;2023-03-23T10:02:39;10.80;;;8.00;;
24277;SDS011;12394;42.692;23.314;2023-03-23T10:05:31;12.90;;;7.70;;
24277;SDS011;12394;42.692;23.314;2023-03-23T10:08:00;10.50;;;8.03;;
24277;SDS011;12394;42.692;23.314;2023-03-23T10:10:52;8.83;;;7.30;;
24277;SDS011;12394;42.692;23.314;2023-03-23T10:16:20;8.90;;;8.00;;
24277;SDS011;12394;42.692;23.314;2023-03-23T10:18:53;11.17;;;7.50;;
24277;SDS011;12394;42.692;23.314;2023-03-23T10:21:23;10.70;;;7.47;;
24277;SDS011;12394;42.692;23.314;2023-03-23T10:23:59;8.90;;;7.60;;
24277;SDS011;12394;42.692;23.314;2023-03-23T10:28:54;10.33;;;6.83;;
24277;SDS011;12394;42.692;23.314;2023-03-23T10:31:26;10.67;;;6.93;;
24277;SDS011;12394;42.692;23.314;2023-03-23T10:33:58;9.67;;;6.90;;
24277;SDS011;12394;42.692;23.314;2023-03-23T10:39:21;8.57;;;7.43;;
24277;SDS011;12394;42.692;23.314;2023-03-23T10:41:51;10.90;;;8.77;;
24277;SDS011;12394;42.692;23.314;2023-03-23T10:44:20;8.57;;;7.80;;
24277;SDS011;12394;42.692;23.314;2023-03-23T10:47:03;9.77;;;6.70;;
24277;SDS011;12394;42.692;23.314;2023-03-23T10:54:54;8.57;;;7.27;;
24277;SDS011;12394;42.692;23.314;2023-03-23T11:02:26;11.60;;;7.30;;
24277;SDS011;12394;42.692;23.314;2023-03-23T11:05:02;9.07;;;8.17;;
24277;SDS011;12394;42.692;23.314;2023-03-23T11:07:33;12.07;;;8.33;;
24277;SDS011;12394;42.692;23.314;2023-03-23T11:10:05;13.73;;;8.80;;
24277;SDS011;12394;42.692;23.314;2023-03-23T11:12:43;10.10;;;7.97;;
24277;SDS011;12394;42.692;23.314;2023-03-23T11:15:23;9.23;;;8.03;;
24277;SDS011;12394;42.692;23.314;2023-03-23T11:17:56;8.17;;;7.37;;
24277;SDS011;12394;42.692;23.314;2023-03-23T11:20:24;12.00;;;8.00;;
24277;SDS011;12394;42.692;23.314;2023-03-23T11:22:51;7.80;;;7.07;;
24277;SDS011;12394;42.692;23.314;2023-03-23T11:25:17;9.43;;;8.20;;
24277;SDS011;12394;42.692;23.314;2023-03-23T11:27:43;9.33;;;7.80;;
24277;SDS011;12394;42.692;23.314;2023-03-23T11:30:10;10.37;;;7.43;;
24277;SDS011;12394;42.692;23.314;2023-03-23T11:32:44;12.17;;;7.70;;
24277;SDS011;12394;42.692;23.314;2023-03-23T11:35:15;9.57;;;7.60;;
24277;SDS011;12394;42.692;23.314;2023-03-23T11:37:56;9.53;;;7.97;;
24277;SDS011;12394;42.692;23.314;2023-03-23T11:40:26;12.93;;;8.27;;
24277;SDS011;12394;42.692;23.314;2023-03-23T11:43:01;12.63;;;8.00;;
24277;SDS011;12394;42.692;23.314;2023-03-23T11:45:38;10.37;;;7.90;;
24277;SDS011;12394;42.692;23.314;2023-03-23T11:51:07;10.40;;;7.83;;
24277;SDS011;12394;42.692;23.314;2023-03-23T11:53:49;20.60;;;11.70;;
24277;SDS011;12394;42.692;23.314;2023-03-23T11:56:26;12.70;;;8.20;;
24277;SDS011;12394;42.692;23.314;2023-03-23T11:58:55;9.43;;;8.43;;
24277;SDS011;12394;42.692;23.314;2023-03-23T12:09:40;10.63;;;7.40;;
24277;SDS011;12394;42.692;23.314;2023-03-23T12:37:47;9.63;;;7.63;;
24277;SDS011;12394;42.692;23.314;2023-03-23T12:46:39;10.50;;;7.47;;
24277;SDS011;12394;42.692;23.314;2023-03-23T12:49:20;9.27;;;7.50;;
24277;SDS011;12394;42.692;23.314;2023-03-23T13:05:35;11.60;;;6.90;;
24277;SDS011;12394;42.692;23.314;2023-03-23T13:08:09;19.40;;;7.13;;
24277;SDS011;12394;42.692;23.314;2023-03-23T13:10:50;13.37;;;6.20;;
24277;SDS011;12394;42.692;23.314;2023-03-23T13:13:20;6.77;;;5.53;;
24277;SDS011;12394;42.692;23.314;2023-03-23T13:18:31;9.00;;;6.17;;
24277;SDS011;12394;42.692;23.314;2023-03-23T13:23:31;7.07;;;6.17;;
24277;SDS011;12394;42.692;23.314;2023-03-23T13:26:12;7.00;;;6.30;;
24277;SDS011;12394;42.692;23.314;2023-03-23T13:28:58;7.13;;;5.83;;
24277;SDS011;12394;42.692;23.314;2023-03-23T13:31:30;8.70;;;6.30;;
24277;SDS011;12394;42.692;23.314;2023-03-23T13:34:01;9.80;;;7.00;;
24277;SDS011;12394;42.692;23.314;2023-03-23T13:36:39;7.63;;;6.07;;
24277;SDS011;12394;42.692;23.314;2023-03-23T13:42:04;7.67;;;6.27;;
24277;SDS011;12394;42.692;23.314;2023-03-23T13:49:50;6.27;;;5.63;;
24277;SDS011;12394;42.692;23.314;2023-03-23T13:52:22;6.53;;;5.83;;
24277;SDS011;12394;42.692;23.314;2023-03-23T13:55:08;7.83;;;5.33;;
24277;SDS011;12394;42.692;23.314;2023-03-23T13:57:55;6.77;;;5.83;;
24277;SDS011;12394;42.692;23.314;2023-03-23T14:03:01;9.30;;;6.80;;
24277;SDS011;12394;42.692;23.314;2023-03-23T14:08:14;6.43;;;5.70;;
24277;SDS011;12394;42.692;23.314;2023-03-23T14:10:57;6.80;;;5.90;;
24277;SDS011;12394;42.692;23.314;2023-03-23T14:18:55;9.27;;;6.90;;
24277;SDS011;12394;42.692;23.314;2023-03-23T14:21:36;6.97;;;5.83;;
24277;SDS011;12394;42.692;23.314;2023-03-23T14:24:08;6.93;;;6.23;;
24277;SDS011;12394;42.692;23.314;2023-03-23T14:26:40;8.33;;;5.60;;
24277;SDS011;12394;42.692;23.314;2023-03-23T14:29:09;8.83;;;5.40;;
24277;SDS011;12394;42.692;23.314;2023-03-23T14:31:37;7.93;;;6.13;;
24277;SDS011;12394;42.692;23.314;2023-03-23T14:34:10;7.67;;;6.20;;
24277;SDS011;12394;42.692;23.314;2023-03-23T14:36:39;7.83;;;5.90;;
24277;SDS011;12394;42.692;23.314;2023-03-23T14:39:11;9.67;;;6.53;;
24277;SDS011;12394;42.692;23.314;2023-03-23T14:41:41;9.70;;;6.80;;
24277;SDS011;12394;42.692;23.314;2023-03-23T14:44:15;8.97;;;6.40;;
24277;SDS011;12394;42.692;23.314;2023-03-23T14:46:46;7.90;;;6.53;;
24277;SDS011;12394;42.692;23.314;2023-03-23T14:49:13;8.20;;;6.00;;
24277;SDS011;12394;42.692;23.314;2023-03-23T14:51:48;8.07;;;5.83;;
24277;SDS011;12394;42.692;23.314;2023-03-23T14:54:18;8.87;;;6.67;;
24277;SDS011;12394;42.692;23.314;2023-03-23T14:56:46;8.63;;;6.23;;
24277;SDS011;12394;42.692;23.314;2023-03-23T14:59:12;9.63;;;6.73;;
24277;SDS011;12394;42.692;23.314;2023-03-23T15:01:37;7.50;;;6.30;;
24277;SDS011;12394;42.692;23.314;2023-03-23T15:04:08;11.37;;;6.30;;
24277;SDS011;12394;42.692;23.314;2023-03-23T15:06:36;11.50;;;6.57;;
24277;SDS011;12394;42.692;23.314;2023-03-23T15:09:06;10.73;;;6.43;;
24277;SDS011;12394;42.692;23.314;2023-03-23T15:11:37;10.00;;;5.97;;
24277;SDS011;12394;42.692;23.314;2023-03-23T15:14:17;7.83;;;6.50;;
24277;SDS011;12394;42.692;23.314;2023-03-23T15:16:49;8.13;;;6.83;;
24277;SDS011;12394;42.692;23.314;2023-03-23T15:19:24;8.47;;;6.67;;
24277;SDS011;12394;42.692;23.314;2023-03-23T15:21:56;11.00;;;6.73;;
24277;SDS011;12394;42.692;23.314;2023-03-23T15:24:36;9.83;;;6.47;;
24277;SDS011;12394;42.692;23.314;2023-03-23T15:27:10;8.27;;;6.50;;
24277;SDS011;12394;42.692;23.314;2023-03-23T15:29:46;8.13;;;6.73;;
24277;SDS011;12394;42.692;23.314;2023-03-23T15:32:29;8.37;;;6.77;;
24277;SDS011;12394;42.692;23.314;2023-03-23T15:35:03;9.37;;;6.97;;
24277;SDS011;12394;42.692;23.314;2023-03-23T15:37:37;9.47;;;6.57;;
24277;SDS011;12394;42.692;23.314;2023-03-23T15:40:13;8.77;;;6.80;;
24277;SDS011;12394;42.692;23.314;2023-03-23T15:42:40;8.27;;;6.37;;
24277;SDS011;12394;42.692;23.314;2023-03-23T15:52:37;7.93;;;6.47;;
24277;SDS011;12394;42.692;23.314;2023-03-23T15:55:03;8.57;;;6.60;;
24277;SDS011;12394;42.692;23.314;2023-03-23T15:57:53;10.33;;;6.80;;
24277;SDS011;12394;42.692;23.314;2023-03-23T16:00:20;8.90;;;6.27;;
24277;SDS011;12394;42.692;23.314;2023-03-23T16:02:51;11.27;;;7.33;;
24277;SDS011;12394;42.692;23.314;2023-03-23T16:05:20;11.03;;;7.20;;
24277;SDS011;12394;42.692;23.314;2023-03-23T16:07:45;10.73;;;7.20;;
24277;SDS011;12394;42.692;23.314;2023-03-23T16:10:15;8.50;;;6.67;;
24277;SDS011;12394;42.692;23.314;2023-03-23T16:12:42;8.60;;;6.70;;
24277;SDS011;12394;42.692;23.314;2023-03-23T16:15:08;10.13;;;6.73;;
24277;SDS011;12394;42.692;23.314;2023-03-23T16:17:33;8.10;;;6.47;;
24277;SDS011;12394;42.692;23.314;2023-03-23T16:19:59;10.13;;;6.80;;
24277;SDS011;12394;42.692;23.314;2023-03-23T16:22:24;7.80;;;6.40;;
24277;SDS011;12394;42.692;23.314;2023-03-23T16:24:50;9.40;;;7.43;;
24277;SDS011;12394;42.692;23.314;2023-03-23T16:27:15;8.63;;;7.53;;
24277;SDS011;12394;42.692;23.314;2023-03-23T16:29:41;9.93;;;7.70;;
24277;SDS011;12394;42.692;23.314;2023-03-23T16:32:06;9.93;;;7.20;;
24277;SDS011;12394;42.692;23.314;2023-03-23T16:34:32;11.17;;;6.83;;
24277;SDS011;12394;42.692;23.314;2023-03-23T16:36:59;7.17;;;6.47;;
24277;SDS011;12394;42.692;23.314;2023-03-23T16:39:25;10.03;;;7.00;;
24277;SDS011;12394;42.692;23.314;2023-03-23T16:41:51;9.77;;;6.57;;
24277;SDS011;12394;42.692;23.314;2023-03-23T16:44:17;9.63;;;6.33;;
24277;SDS011;12394;42.692;23.314;2023-03-23T16:46:42;11.53;;;7.20;;
24277;SDS011;12394;42.692;23.314;2023-03-23T16:49:07;14.63;;;7.00;;
24277;SDS011;12394;42.692;23.314;2023-03-23T16:51:33;11.07;;;6.63;;
24277;SDS011;12394;42.692;23.314;2023-03-23T16:53:58;10.80;;;6.83;;